Time;durP1;ratioP1;P1;durP2;ratioP2;P2;SDS_P1;SDS_P2;PMS_P1;PMS_P2;Temp;Humidity;BMP_temperature;BMP_pressure;BME280_temperature;BME280_humidity;BME280_pressure;Samples;Min_cycle;Max_cycle;Signal;HPM_P1;HPM_P2
2023/10/20 00:00:09;;;;;;;36.35;6.82;;;;;;;9.45;100.00;98679.84;4991133;28;20500;-70
2023/10/20 00:02:35;;;;;;;45.83;9.90;;;;;;;9.64;100.00;98693.38;4992191;28;20113;-70
2023/10/20 00:05:03;;;;;;;31.25;7.65;;;;;;;9.63;100.00;98690.88;4992228;28;20459;-70
2023/10/20 00:07:30;;;;;;;44.25;7.78;;;;;;;9.73;100.00;98696.31;5001050;28;20400;-70
2023/10/20 00:09:57;;;;;;;44.30;9.00;;;;;;;9.69;100.00;98693.09;4995796;28;20046;-70
2023/10/20 00:12:24;;;;;;;33.97;7.78;;;;;;;9.60;100.00;98694.53;4991977;28;20471;-70
2023/10/20 00:14:51;;;;;;;32.78;6.93;;;;;;;9.41;100.00;98735.84;4991712;28;20056;-70
2023/10/20 00:17:17;;;;;;;50.42;9.00;;;;;;;9.60;100.00;98715.44;4988039;28;20422;-70
2023/10/20 00:19:44;;;;;;;36.78;7.95;;;;;;;9.67;100.00;98708.03;5003458;28;20082;-70
2023/10/20 00:22:11;;;;;;;39.65;8.32;;;;;;;9.59;100.00;98702.47;4993455;28;20043;-70
2023/10/20 00:24:37;;;;;;;47.45;10.13;;;;;;;9.76;100.00;98701.34;4991916;28;20062;-70
2023/10/20 00:27:04;;;;;;;36.28;8.93;;;;;;;9.58;100.00;98688.56;4993891;28;20407;-70
2023/10/20 00:29:31;;;;;;;40.58;7.53;;;;;;;9.82;100.00;98708.78;5002807;28;20133;-70
2023/10/20 00:31:57;;;;;;;47.38;9.93;;;;;;;10.03;100.00;98724.81;4991707;28;20046;-70
2023/10/20 00:34:24;;;;;;;37.88;8.50;;;;;;;9.76;100.00;98724.88;5026531;28;20046;-69
2023/10/20 00:36:51;;;;;;;38.42;8.27;;;;;;;9.94;100.00;98718.41;4998653;28;20489;-70
2023/10/20 00:39:17;;;;;;;23.98;6.80;;;;;;;9.57;100.00;98733.09;5004422;28;20046;-70
2023/10/20 00:41:44;;;;;;;31.15;8.98;;;;;;;9.78;100.00;98731.66;4991720;28;20061;-70
2023/10/20 00:44:11;;;;;;;28.88;7.20;;;;;;;9.69;100.00;98732.28;4991115;28;20054;-71
2023/10/20 00:46:37;;;;;;;27.83;6.72;;;;;;;9.78;100.00;98742.13;4991311;28;20060;-70
2023/10/20 00:49:04;;;;;;;40.13;8.52;;;;;;;9.74;100.00;98724.13;4991553;28;20439;-70
2023/10/20 00:51:31;;;;;;;36.22;7.47;;;;;;;9.64;100.00;98726.53;4990980;28;20447;-70
2023/10/20 00:53:59;;;;;;;39.03;7.10;;;;;;;9.69;100.00;98732.28;4995369;28;20051;-70
2023/10/20 00:56:27;;;;;;;33.55;7.50;;;;;;;9.79;100.00;98727.28;5003437;28;20058;-70
2023/10/20 00:58:54;;;;;;;30.52;7.10;;;;;;;9.67;100.00;98731.56;5010998;28;20053;-70
2023/10/20 01:01:21;;;;;;;29.70;6.22;;;;;;;9.68;100.00;98731.44;5025841;28;20430;-70
2023/10/20 01:03:48;;;;;;;32.10;6.25;;;;;;;9.67;100.00;98727.16;4997959;28;20136;-70
2023/10/20 01:06:15;;;;;;;25.13;5.38;;;;;;;9.58;100.00;98733.00;5010722;28;20057;-71
2023/10/20 01:08:42;;;;;;;27.40;6.30;;;;;;;9.45;100.00;98711.19;5010594;28;20042;-70
2023/10/20 01:11:09;;;;;;;27.65;6.15;;;;;;;9.44;100.00;98752.16;4999850;28;20065;-70
2023/10/20 01:13:36;;;;;;;38.78;8.27;;;;;;;9.40;100.00;98727.19;4991407;28;20388;-70
2023/10/20 01:16:03;;;;;;;38.78;7.75;;;;;;;9.65;100.00;98730.78;5000935;28;20049;-70
2023/10/20 01:18:30;;;;;;;33.28;6.25;;;;;;;9.50;100.00;98720.41;4996752;28;20114;-70
2023/10/20 01:20:57;;;;;;;29.15;6.30;;;;;;;9.46;100.00;98739.84;5010567;28;20057;-70
2023/10/20 01:23:24;;;;;;;22.58;5.07;;;;;;;9.43;100.00;98721.75;4995377;28;20407;-71
2023/10/20 01:25:53;;;;;;;29.85;5.60;;;;;;;9.50;100.00;98735.25;4990612;28;20054;-70
2023/10/20 01:28:19;;;;;;;30.15;6.50;;;;;;;9.66;100.00;98748.97;5002891;28;20145;-70
2023/10/20 01:30:46;;;;;;;24.75;5.72;;;;;;;9.69;100.00;98754.00;5010342;28;20049;-71
2023/10/20 01:33:13;;;;;;;24.83;5.93;;;;;;;9.56;100.00;98727.03;5001356;28;20058;-72
2023/10/20 01:35:40;;;;;;;35.40;8.05;;;;;;;9.46;100.00;98749.47;5008205;28;20050;-70
2023/10/20 01:38:07;;;;;;;34.47;7.32;;;;;;;9.47;100.00;98728.47;4994820;28;20129;-70
2023/10/20 01:40:33;;;;;;;36.97;6.00;;;;;;;9.51;100.00;98734.31;5009006;28;20050;-70
2023/10/20 01:43:00;;;;;;;37.95;7.25;;;;;;;9.62;100.00;98746.69;4993930;28;20427;-70
2023/10/20 01:45:27;;;;;;;29.60;7.72;;;;;;;9.79;100.00;98749.03;5004974;28;20050;-70
2023/10/20 01:47:54;;;;;;;35.53;8.65;;;;;;;9.68;100.00;98735.81;4998630;28;20064;-70
2023/10/20 01:50:22;;;;;;;28.50;7.43;;;;;;;9.58;100.00;98716.44;5003006;28;20446;-70
2023/10/20 01:52:49;;;;;;;37.95;8.63;;;;;;;9.55;100.00;98734.97;5014514;28;20104;-70
2023/10/20 01:55:16;;;;;;;33.45;6.93;;;;;;;9.44;100.00;98749.56;5007921;28;20140;-70
2023/10/20 01:57:42;;;;;;;27.38;6.25;;;;;;;9.43;100.00;98731.38;4994504;28;20058;-70
2023/10/20 02:00:13;;;;;;;29.15;6.57;;;;;;;9.42;100.00;98738.38;4999488;28;20050;-70
2023/10/20 02:02:40;;;;;;;40.67;9.55;;;;;;;9.55;100.00;98768.94;5005954;28;20131;-70
2023/10/20 02:05:12;;;;;;;31.55;7.05;;;;;;;9.29;100.00;98746.13;5011067;28;20073;-70
2023/10/20 02:07:39;;;;;;;24.35;5.85;;;;;;;9.08;100.00;98743.16;5004971;28;20052;-70
2023/10/20 02:10:06;;;;;;;26.30;5.28;;;;;;;9.14;100.00;98744.53;5014330;28;20510;-70
2023/10/20 02:12:34;;;;;;;27.67;6.78;;;;;;;9.00;100.00;98726.28;5005023;28;20054;-70
2023/10/20 02:15:01;;;;;;;33.42;7.88;;;;;;;9.18;100.00;98750.38;5007739;28;20415;-70
2023/10/20 02:17:27;;;;;;;26.27;7.15;;;;;;;9.19;100.00;98752.91;4996815;28;20062;-70
2023/10/20 02:19:54;;;;;;;36.45;7.50;;;;;;;9.21;100.00;98739.75;5007368;28;20125;-70
2023/10/20 02:22:21;;;;;;;30.45;7.93;;;;;;;9.24;100.00;98744.75;5000344;28;20050;-70
2023/10/20 02:24:47;;;;;;;32.95;7.07;;;;;;;9.32;100.00;98745.13;5014033;28;20046;-70
2023/10/20 02:27:14;;;;;;;38.17;9.38;;;;;;;9.39;100.00;98741.19;5003750;28;20396;-70
2023/10/20 02:29:40;;;;;;;37.70;7.18;;;;;;;9.46;100.00;98750.28;4995694;28;20052;-70
2023/10/20 02:32:08;;;;;;;39.50;7.82;;;;;;;9.34;100.00;98742.41;4993958;28;20161;-70
2023/10/20 02:34:35;;;;;;;29.95;6.70;;;;;;;9.34;100.00;98745.84;5002354;28;20054;-70
2023/10/20 02:37:02;;;;;;;29.73;6.60;;;;;;;9.25;100.00;98715.13;5013418;28;20538;-70
2023/10/20 02:39:29;;;;;;;32.95;6.28;;;;;;;9.44;100.00;98720.00;4993452;28;20049;-70
2023/10/20 02:41:56;;;;;;;29.10;6.88;;;;;;;9.55;100.00;98751.47;4993767;28;20133;-70
2023/10/20 02:44:27;;;;;;;32.97;6.75;;;;;;;9.59;100.00;98739.88;4992774;28;20057;-70
2023/10/20 02:46:54;;;;;;;36.03;7.72;;;;;;;9.33;100.00;98720.69;5010151;28;20096;-70
2023/10/20 02:49:21;;;;;;;29.27;5.80;;;;;;;9.16;100.00;98716.53;4993731;28;20052;-70
2023/10/20 02:51:48;;;;;;;25.98;5.75;;;;;;;9.29;100.00;98734.88;5000116;28;20053;-70
2023/10/20 02:54:14;;;;;;;31.38;7.68;;;;;;;9.29;100.00;98712.19;5013571;28;20054;-69
2023/10/20 02:56:41;;;;;;;29.50;7.20;;;;;;;9.46;100.00;98734.63;5002959;28;20076;-70
2023/10/20 02:59:08;;;;;;;36.45;6.82;;;;;;;9.19;100.00;98711.13;4993692;28;20182;-70
2023/10/20 03:01:34;;;;;;;33.63;6.72;;;;;;;9.28;100.00;98762.75;4993684;28;20459;-70
2023/10/20 03:04:01;;;;;;;35.20;8.23;;;;;;;9.20;100.00;98743.28;5002144;28;20060;-70
2023/10/20 03:06:28;;;;;;;34.58;6.95;;;;;;;9.30;100.00;98754.84;5012401;28;20487;-70
2023/10/20 03:08:55;;;;;;;44.80;8.05;;;;;;;9.17;100.00;98706.94;4993054;28;20054;-70
2023/10/20 03:11:21;;;;;;;34.40;6.22;;;;;;;9.38;100.00;98741.28;4992053;28;20058;-70
2023/10/20 03:13:48;;;;;;;27.63;6.65;;;;;;;9.27;100.00;98747.19;5012227;28;20464;-70
2023/10/20 03:16:15;;;;;;;32.70;7.68;;;;;;;9.27;100.00;98728.91;5012692;28;20056;-70
2023/10/20 03:18:41;;;;;;;33.90;8.75;;;;;;;9.37;100.00;98727.38;5001658;28;20550;-70
2023/10/20 03:21:10;;;;;;;40.40;9.95;;;;;;;9.21;100.00;98727.53;5002943;28;20053;-70
2023/10/20 03:23:37;;;;;;;37.17;7.63;;;;;;;9.27;100.00;98716.69;4994980;28;20054;-70
2023/10/20 03:26:09;;;;;;;33.63;7.43;;;;;;;9.32;100.00;98732.06;5004905;28;20054;-70
2023/10/20 03:28:36;;;;;;;32.75;6.32;;;;;;;9.34;100.00;98732.78;5007477;28;20056;-70
2023/10/20 03:31:03;;;;;;;26.70;6.70;;;;;;;9.25;100.00;98726.38;5005430;28;20057;-70
2023/10/20 03:33:30;;;;;;;37.83;7.38;;;;;;;9.28;100.00;98735.81;5005094;28;20054;-70
2023/10/20 03:36:03;;;;;;;36.05;8.77;;;;;;;9.33;100.00;98707.63;4993503;28;20488;-70
2023/10/20 03:38:30;;;;;;;;;;;;;;;9.39;100.00;98725.50;5005384;28;20060;-70
2023/10/20 03:41:07;;;;;;;35.72;8.75;;;;;;;9.40;100.00;98716.75;5007860;28;19984;-70
2023/10/20 03:43:35;;;;;;;35.08;8.20;;;;;;;9.32;100.00;98719.84;5000484;28;20096;-70
2023/10/20 03:46:03;;;;;;;33.28;7.13;;;;;;;9.49;100.00;98715.28;4997199;28;20144;-70
2023/10/20 03:48:33;;;;;;;25.35;7.88;;;;;;;9.42;100.00;98740.13;5006453;28;20050;-69
2023/10/20 03:51:00;;;;;;;29.75;6.15;;;;;;;9.35;100.00;98694.44;4998967;28;20050;-70
2023/10/20 03:53:27;;;;;;;38.10;6.90;;;;;;;9.35;100.00;98723.19;5006277;28;20089;-70
2023/10/20 03:56:05;;;;;;;28.70;6.57;;;;;;;9.22;100.00;98712.69;4991727;28;20045;-70
2023/10/20 03:58:32;;;;;;;33.35;6.43;;;;;;;9.20;100.00;98717.19;4992000;28;20491;-70
2023/10/20 04:01:02;;;;;;;34.03;7.28;;;;;;;9.17;100.00;98725.19;4992617;28;20046;-70
2023/10/20 04:03:30;;;;;;;29.52;6.05;;;;;;;9.04;100.00;98730.38;4996516;28;20124;-70
2023/10/20 04:05:57;;;;;;;28.38;6.60;;;;;;;8.83;100.00;98709.06;5012139;28;20052;-70
2023/10/20 04:08:24;;;;;;;25.80;5.50;;;;;;;9.07;100.00;98722.34;4995634;28;20564;-70
2023/10/20 04:10:58;;;;;;;22.45;5.85;;;;;;;9.40;100.00;98711.53;5018285;28;20057;-70
2023/10/20 04:13:25;;;;;;;31.55;6.97;;;;;;;9.15;100.00;98733.13;4996102;28;20140;-70
2023/10/20 04:15:54;;;;;;;24.00;6.25;;;;;;;9.44;100.00;98740.88;4999849;28;20054;-70
2023/10/20 04:18:22;;;;;;;24.83;6.63;;;;;;;9.22;100.00;98720.53;4996665;28;20064;-70
2023/10/20 04:20:49;;;;;;;31.02;6.63;;;;;;;9.09;100.00;98731.75;5012197;28;20060;-70
2023/10/20 04:23:17;;;;;;;31.00;7.50;;;;;;;9.06;100.00;98738.94;4998923;28;20050;-70
2023/10/20 04:25:53;;;;;;;26.85;6.70;;;;;;;9.15;100.00;98730.50;5005274;28;20049;-70
2023/10/20 04:28:20;;;;;;;26.95;5.55;;;;;;;9.25;100.00;98730.78;4991364;28;20088;-70
2023/10/20 04:41:56;;;;;;;27.13;7.03;;;;;;;8.99;100.00;98735.88;4995383;28;20058;-70
2023/10/20 04:57:52;;;;;;;29.20;6.85;;;;;;;9.35;100.00;98744.06;5002346;28;20402;-70
2023/10/20 05:08:16;;;;;;;34.95;8.98;;;;;;;9.32;100.00;98763.41;4997948;28;20056;-70
2023/10/20 05:10:49;;;;;;;33.80;9.43;;;;;;;9.30;100.00;98747.81;4991303;28;20430;-70
2023/10/20 05:13:16;;;;;;;33.40;8.00;;;;;;;9.35;100.00;98744.06;5005951;28;20065;-70
2023/10/20 05:15:43;;;;;;;33.72;7.38;;;;;;;9.30;100.00;98747.81;5004401;28;20050;-70
2023/10/20 05:18:14;;;;;;;38.58;6.85;;;;;;;9.24;100.00;98731.69;4991483;28;20424;-70
2023/10/20 05:20:43;;;;;;;35.28;7.07;;;;;;;9.45;100.00;98756.44;4990110;28;20042;-70
2023/10/20 05:23:14;;;;;;;41.88;9.75;;;;;;;9.23;100.00;98753.56;5003614;28;20046;-70
2023/10/20 05:25:46;;;;;;;36.13;8.82;;;;;;;9.25;100.00;98747.28;4991332;28;20086;-70
2023/10/20 05:28:15;;;;;;;24.30;6.00;;;;;;;9.13;100.00;98748.06;4999806;28;20169;-70
2023/10/20 05:30:44;;;;;;;38.22;8.05;;;;;;;9.26;100.00;98748.97;5004166;28;20049;-70
2023/10/20 05:33:11;;;;;;;42.22;9.23;;;;;;;9.32;100.00;98781.69;4989911;28;20072;-70
2023/10/20 05:35:39;;;;;;;27.70;7.10;;;;;;;9.34;100.00;98768.53;5004675;28;20050;-70
2023/10/20 05:38:07;;;;;;;33.53;6.90;;;;;;;9.30;100.00;98753.06;5000546;28;20129;-70
2023/10/20 05:40:35;;;;;;;34.33;8.82;;;;;;;9.28;100.00;98757.53;4997045;28;20046;-70
2023/10/20 05:43:05;;;;;;;39.50;7.72;;;;;;;9.34;100.00;98751.06;4996788;28;20073;-70
2023/10/20 05:45:41;;;;;;;37.00;8.02;;;;;;;9.47;100.00;98767.66;5000144;28;20058;-70
2023/10/20 05:48:08;;;;;;;36.72;8.70;;;;;;;9.43;100.00;98791.44;4993598;28;20080;-70
2023/10/20 05:50:37;;;;;;;29.88;6.60;;;;;;;9.16;100.00;98791.44;5009500;28;20050;-70
2023/10/20 05:53:05;;;;;;;31.90;8.07;;;;;;;9.22;100.00;98798.84;5010877;28;20582;-70
2023/10/20 05:55:33;;;;;;;32.90;6.75;;;;;;;9.13;100.00;98790.66;5001333;28;20411;-70
2023/10/20 05:58:00;;;;;;;28.17;6.82;;;;;;;9.13;100.00;98795.88;4990514;28;20539;-70
2023/10/20 06:00:27;;;;;;;39.15;7.97;;;;;;;9.09;100.00;98819.69;4998118;28;20395;-70
2023/10/20 06:02:54;;;;;;;40.60;8.48;;;;;;;9.11;100.00;98805.59;4999148;28;20516;-70
2023/10/20 06:05:22;;;;;;;35.85;7.85;;;;;;;8.74;100.00;98789.59;5010372;28;20081;-70
2023/10/20 06:07:48;;;;;;;37.72;8.95;;;;;;;8.90;100.00;98797.31;4999004;28;20415;-70
2023/10/20 06:10:22;;;;;;;40.20;7.97;;;;;;;8.84;100.00;98802.94;4990562;28;20496;-70
2023/10/20 06:12:51;;;;;;;46.75;9.95;;;;;;;9.05;100.00;98824.25;4991083;28;20459;-70
2023/10/20 06:15:19;;;;;;;47.22;8.43;;;;;;;9.04;100.00;98837.41;4990908;28;20042;-70
2023/10/20 06:17:47;;;;;;;51.53;8.02;;;;;;;8.90;100.00;98819.97;4991001;28;20451;-70
2023/10/20 06:20:15;;;;;;;37.72;7.65;;;;;;;8.93;100.00;98802.34;5009603;28;20049;-70
2023/10/20 06:22:42;;;;;;;38.85;7.30;;;;;;;8.77;100.00;98809.44;5013785;28;20046;-70
2023/10/20 06:25:12;;;;;;;34.80;7.60;;;;;;;8.88;100.00;98827.88;5013469;28;20682;-70
2023/10/20 06:27:42;;;;;;;36.13;8.50;;;;;;;9.11;100.00;98825.66;5013935;28;20389;-70
2023/10/20 06:30:19;;;;;;;34.53;6.32;;;;;;;8.99;100.00;98821.19;5013499;28;20056;-70
2023/10/20 06:32:47;;;;;;;30.63;6.82;;;;;;;8.95;100.00;98838.81;4984892;28;20177;-70
2023/10/20 06:35:13;;;;;;;28.83;5.82;;;;;;;8.89;100.00;98826.97;5006632;28;20484;-70
2023/10/20 06:40:42;;;;;;;37.10;8.15;;;;;;;8.98;100.00;98832.53;4972105;28;20047;-70
2023/10/20 06:43:08;;;;;;;36.50;7.40;;;;;;;8.77;100.00;98848.59;4994178;28;20072;-70
2023/10/20 06:45:35;;;;;;;27.33;8.02;;;;;;;8.85;100.00;98863.78;5003354;28;20153;-71
2023/10/20 06:48:02;;;;;;;28.35;6.80;;;;;;;8.91;100.00;98851.19;5001531;28;20050;-70
2023/10/20 06:50:30;;;;;;;25.13;6.32;;;;;;;8.73;100.00;98884.47;5002706;28;20046;-70
2023/10/20 06:52:56;;;;;;;35.22;6.10;;;;;;;8.72;100.00;98866.28;5003530;28;20472;-70
2023/10/20 06:55:24;;;;;;;33.63;7.18;;;;;;;8.90;100.00;98862.56;5005508;28;20094;-70
2023/10/20 06:58:11;;;;;;;35.10;7.70;;;;;;;9.01;100.00;98867.16;5009717;28;20045;-70
2023/10/20 07:00:38;;;;;;;28.48;7.28;;;;;;;9.06;100.00;98878.13;5012922;28;20046;-70
2023/10/20 07:03:04;;;;;;;32.60;6.63;;;;;;;8.97;100.00;98867.44;5007902;28;20213;-70
2023/10/20 07:05:31;;;;;;;36.15;8.48;;;;;;;8.84;100.00;98846.47;4993510;28;20507;-70
2023/10/20 07:08:01;;;;;;;30.30;6.43;;;;;;;8.73;100.00;98892.28;4993542;28;20061;-70
2023/10/20 07:10:27;;;;;;;35.50;7.07;;;;;;;8.84;100.00;98862.13;5012099;28;20049;-70
2023/10/20 07:12:54;;;;;;;27.60;6.60;;;;;;;8.89;100.00;98889.63;5006928;28;20053;-70
2023/10/20 07:15:21;;;;;;;41.33;7.45;;;;;;;9.15;100.00;98886.34;4999189;28;20048;-70
2023/10/20 07:17:48;;;;;;;36.85;8.85;;;;;;;9.08;100.00;98886.72;5003079;28;20054;-70
2023/10/20 07:20:15;;;;;;;33.38;6.43;;;;;;;8.86;100.00;98881.97;4995338;28;20117;-70
2023/10/20 07:22:42;;;;;;;28.33;5.45;;;;;;;8.78;100.00;98907.66;5012909;28;20424;-70
2023/10/20 07:25:08;;;;;;;25.17;6.20;;;;;;;8.98;100.00;98909.09;4998356;28;20058;-70
2023/10/20 07:27:35;;;;;;;32.03;6.22;;;;;;;8.85;100.00;98898.56;4993256;28;20054;-70
2023/10/20 07:30:03;;;;;;;31.67;7.22;;;;;;;8.73;100.00;98905.34;4992071;28;20065;-70
2023/10/20 07:32:30;;;;;;;42.75;8.50;;;;;;;8.67;100.00;98902.25;4991461;28;20141;-70
2023/10/20 07:34:57;;;;;;;33.63;8.15;;;;;;;8.80;100.00;98912.78;5003960;28;20049;-70
2023/10/20 07:37:24;;;;;;;32.03;6.15;;;;;;;8.66;100.00;98900.59;5011435;28;20057;-70
2023/10/20 07:39:52;;;;;;;28.98;6.85;;;;;;;8.68;100.00;98917.81;5002346;28;20054;-70
2023/10/20 07:42:19;;;;;;;28.25;5.97;;;;;;;8.58;100.00;98908.00;4992316;28;20050;-70
2023/10/20 07:44:46;;;;;;;38.00;8.77;;;;;;;8.68;100.00;98914.38;4997039;28;20046;-70
2023/10/20 07:47:13;;;;;;;29.33;6.07;;;;;;;8.51;100.00;98900.53;5001391;28;20053;-70
2023/10/20 07:49:40;;;;;;;32.20;6.65;;;;;;;8.57;100.00;98911.53;5005085;28;20483;-70
2023/10/20 07:52:08;;;;;;;31.35;6.05;;;;;;;8.48;100.00;98928.56;4992253;28;20048;-70
2023/10/20 07:54:34;;;;;;;30.20;6.10;;;;;;;8.51;100.00;98887.50;4992813;28;20050;-70
2023/10/20 07:57:03;;;;;;;31.30;8.68;;;;;;;8.52;100.00;98911.81;4992992;28;20053;-70
2023/10/20 07:59:30;;;;;;;33.83;8.05;;;;;;;8.63;100.00;98887.72;4997355;28;20510;-70
2023/10/20 08:01:57;;;;;;;33.45;9.02;;;;;;;8.68;100.00;98902.16;4992143;28;20401;-70
2023/10/20 08:04:24;;;;;;;32.65;8.50;;;;;;;8.49;100.00;98923.25;4994804;28;20054;-70
2023/10/20 08:06:51;;;;;;;29.63;7.80;;;;;;;8.32;100.00;98915.53;5011015;28;20057;-70
2023/10/20 08:09:19;;;;;;;36.22;6.43;;;;;;;8.21;100.00;98903.13;5002005;28;20046;-70
2023/10/20 08:11:45;;;;;;;27.80;6.82;;;;;;;8.16;100.00;98908.59;4995782;28;20475;-70
2023/10/20 08:14:12;;;;;;;28.77;7.85;;;;;;;8.44;100.00;98932.28;5000682;28;20042;-70
2023/10/20 08:16:39;;;;;;;30.42;7.40;;;;;;;8.33;100.00;98909.41;4996277;28;20133;-70
2023/10/20 08:19:06;;;;;;;29.63;7.07;;;;;;;8.23;100.00;98921.28;4990576;28;20056;-70
2023/10/20 08:21:33;;;;;;;31.77;6.95;;;;;;;8.48;100.00;98913.78;4991286;28;20046;-70
2023/10/20 08:24:00;;;;;;;42.40;9.98;;;;;;;8.34;100.00;98921.53;5010786;28;20057;-70
2023/10/20 08:26:26;;;;;;;37.30;8.82;;;;;;;8.31;100.00;98927.75;5011891;28;20057;-70
2023/10/20 08:28:53;;;;;;;36.72;7.05;;;;;;;8.23;100.00;98926.50;4994305;28;20058;-70
2023/10/20 08:31:21;;;;;;;23.25;5.72;;;;;;;8.58;100.00;98929.72;4991682;28;20468;-70
2023/10/20 08:33:51;;;;;;;26.73;6.18;;;;;;;8.28;100.00;98930.50;5007437;28;20058;-70
2023/10/20 08:36:20;;;;;;;37.80;7.90;;;;;;;8.61;100.00;98928.72;5011681;28;20053;-70
2023/10/20 08:38:49;;;;;;;31.13;6.38;;;;;;;8.60;100.00;98932.25;4996447;28;20065;-70
2023/10/20 08:41:19;;;;;;;38.83;6.97;;;;;;;8.55;100.00;98932.50;5004348;28;20049;-70
2023/10/20 08:43:46;;;;;;;32.25;6.53;;;;;;;8.60;100.00;98908.75;4991306;28;20050;-70
2023/10/20 08:46:15;;;;;;;26.88;5.80;;;;;;;8.69;100.00;98903.00;4991797;28;20050;-70
2023/10/20 08:48:47;;;;;;;40.70;10.32;;;;;;;8.90;100.00;98943.47;4991879;28;20476;-70
2023/10/20 08:51:16;;;;;;;31.13;7.45;;;;;;;8.92;100.00;98951.22;5005196;28;20498;-70
2023/10/20 08:53:44;;;;;;;38.75;7.57;;;;;;;8.96;100.00;98951.88;5003550;28;20334;-70
2023/10/20 08:56:12;;;;;;;35.03;6.45;;;;;;;8.73;100.00;98961.91;4991938;28;20057;-70
2023/10/20 08:58:40;;;;;;;25.60;6.35;;;;;;;8.50;100.00;98950.22;4997967;28;20148;-70
2023/10/20 09:01:06;;;;;;;25.33;5.93;;;;;;;8.78;100.00;98952.03;5010763;28;20060;-70
2023/10/20 09:03:44;;;;;;;19.77;6.28;;;;;;;8.85;100.00;98962.94;5006577;28;20410;-69
2023/10/20 09:06:14;;;;;;;37.65;9.15;;;;;;;8.90;100.00;98950.47;4991588;28;20081;-70
2023/10/20 09:08:43;;;;;;;26.98;5.70;;;;;;;8.67;100.00;98952.66;5005543;28;20080;-70
2023/10/20 09:11:11;;;;;;;40.80;6.72;;;;;;;8.95;100.00;98964.09;4991157;28;20435;-70
2023/10/20 09:13:40;;;;;;;24.45;5.15;;;;;;;8.73;100.00;98974.97;4989965;28;20129;-70
2023/10/20 09:16:10;;;;;;;29.67;6.40;;;;;;;8.76;100.00;98964.31;5001059;28;20054;-70
2023/10/20 09:18:49;;;;;;;31.77;7.55;;;;;;;8.73;100.00;98954.09;4994373;28;20050;-70
2023/10/20 09:21:18;;;;;;;32.03;7.00;;;;;;;8.79;100.00;98976.38;5001083;28;20108;-70
2023/10/20 09:24:02;;;;;;;31.63;7.20;;;;;;;8.91;100.00;98966.03;4994113;28;20046;-70
2023/10/20 09:26:32;;;;;;;30.67;6.45;;;;;;;8.85;100.00;98969.03;4989780;28;20060;-70
2023/10/20 09:28:59;;;;;;;36.35;7.25;;;;;;;8.69;100.00;98968.22;4995291;28;20133;-70
2023/10/20 09:31:28;;;;;;;25.05;6.43;;;;;;;8.83;100.00;98983.09;5015730;28;20081;-70
2023/10/20 09:33:55;;;;;;;25.83;5.05;;;;;;;8.70;100.00;98986.41;4994143;28;20061;-70
2023/10/20 09:36:23;;;;;;;22.23;4.88;;;;;;;8.84;100.00;98977.78;5002235;28;20080;-70
2023/10/20 09:38:55;;;;;;;25.35;6.35;;;;;;;9.04;100.00;98979.19;4992263;28;20051;-70
2023/10/20 09:41:29;;;;;;;28.30;7.53;;;;;;;9.04;100.00;98989.66;5003404;28;20042;-70
2023/10/20 09:44:06;;;;;;;53.22;11.60;;;;;;;8.88;100.00;98971.44;5002486;28;20054;-70
2023/10/20 09:46:36;;;;;;;25.67;5.95;;;;;;;8.87;100.00;98992.41;5005925;28;20097;-70
2023/10/20 09:49:28;;;;;;;33.17;7.22;;;;;;;8.72;100.00;98987.16;5002173;28;20058;-70
2023/10/20 09:51:56;;;;;;;36.78;6.85;;;;;;;8.77;100.00;98999.09;4980095;28;20038;-70
2023/10/20 09:54:33;;;;;;;25.40;5.93;;;;;;;8.65;100.00;98992.81;4993338;28;20592;-70
2023/10/20 09:57:00;;;;;;;22.73;6.45;;;;;;;8.72;100.00;99002.81;4988950;28;20045;-69
2023/10/20 09:59:27;;;;;;;30.67;7.40;;;;;;;9.02;100.00;99003.72;5001542;28;20057;-70
2023/10/20 10:01:56;;;;;;;26.95;5.75;;;;;;;8.94;100.00;99027.66;4998580;28;20081;-70
2023/10/20 10:04:28;;;;;;;20.77;4.85;;;;;;;8.87;100.00;99008.91;5003221;28;20082;-70
2023/10/20 10:06:59;;;;;;;30.35;6.10;;;;;;;8.92;100.00;98995.59;4998165;28;20402;-70
2023/10/20 10:09:49;;;;;;;21.98;6.47;;;;;;;9.16;100.00;99003.75;5003747;28;20052;-70
2023/10/20 10:12:21;;;;;;;23.65;5.03;;;;;;;9.32;100.00;99004.50;5014342;28;20050;-69
2023/10/20 10:14:58;;;;;;;22.65;4.70;;;;;;;9.35;100.00;99000.88;5014345;28;20448;-70
2023/10/20 10:17:26;;;;;;;22.88;4.80;;;;;;;9.18;100.00;99022.78;5007503;28;20496;-70
2023/10/20 10:19:55;;;;;;;17.88;3.97;;;;;;;9.05;100.00;99012.22;5007527;28;20049;-70
2023/10/20 10:22:26;;;;;;;21.70;4.88;;;;;;;8.50;100.00;99025.84;5002913;28;20087;-70
2023/10/20 10:24:55;;;;;;;21.40;5.38;;;;;;;8.61;100.00;99013.03;4994210;28;20054;-70
2023/10/20 10:27:27;;;;;;;27.42;5.88;;;;;;;8.89;100.00;99001.84;4993588;28;20047;-70
2023/10/20 10:32:34;;;;;;;23.23;4.30;;;;;;;9.15;100.00;99004.66;5000252;28;20598;-70
2023/10/20 10:35:04;;;;;;;23.42;5.00;;;;;;;9.20;100.00;99002.63;5013933;28;20461;-70
2023/10/20 10:37:36;;;;;;;23.65;5.15;;;;;;;9.28;100.00;98994.34;4996090;28;20104;-70
2023/10/20 10:40:09;;;;;;;27.40;5.80;;;;;;;9.38;100.00;99010.31;5005315;28;20085;-70
2023/10/20 10:42:45;;;;;;;24.10;5.15;;;;;;;9.30;100.00;99016.00;4995395;28;20057;-70
2023/10/20 10:45:16;;;;;;;22.08;4.90;;;;;;;9.30;100.00;99026.44;4993420;28;20046;-70
2023/10/20 10:47:44;;;;;;;27.52;6.10;;;;;;;9.31;100.00;99028.09;4994338;28;20455;-70
2023/10/20 10:50:10;;;;;;;26.25;5.97;;;;;;;9.42;100.00;99030.06;5007180;28;20046;-70
2023/10/20 10:52:37;;;;;;;15.98;3.88;;;;;;;9.27;100.00;99011.78;4993868;28;20413;-70
2023/10/20 10:55:04;;;;;;;19.15;4.70;;;;;;;9.26;100.00;99031.00;5011390;28;20415;-70
2023/10/20 10:57:31;;;;;;;20.13;3.80;;;;;;;9.26;100.00;99022.31;4994223;28;20054;-70
2023/10/20 10:59:58;;;;;;;20.73;4.60;;;;;;;9.38;100.00;99031.19;5006499;28;20060;-70
2023/10/20 11:02:27;;;;;;;19.60;4.55;;;;;;;9.46;100.00;99032.41;4992922;28;20476;-70
2023/10/20 11:04:54;;;;;;;22.13;4.18;;;;;;;9.41;100.00;99049.31;5006641;28;20553;-69
2023/10/20 11:07:22;;;;;;;18.15;3.90;;;;;;;9.26;100.00;99036.22;5001517;28;20092;-70
2023/10/20 11:09:49;;;;;;;19.35;3.80;;;;;;;9.20;100.00;99033.13;5002138;28;20050;-69
2023/10/20 11:12:15;;;;;;;25.50;5.18;;;;;;;9.27;100.00;99035.28;4994439;28;20464;-70
2023/10/20 11:14:44;;;;;;;22.65;5.32;;;;;;;9.35;100.00;99041.81;4993471;28;20412;-69
2023/10/20 11:17:13;;;;;;;23.00;4.10;;;;;;;9.22;100.00;99057.38;4996100;28;20120;-70
2023/10/20 11:19:40;;;;;;;22.30;4.95;;;;;;;9.27;100.00;99040.50;5004138;28;20057;-70
2023/10/20 11:22:17;;;;;;;28.42;5.35;;;;;;;9.30;100.00;99042.13;4995230;28;20077;-70
2023/10/20 11:24:55;;;;;;;19.90;4.28;;;;;;;9.24;100.00;99039.84;4993342;28;20050;-70
2023/10/20 11:27:21;;;;;;;21.58;5.00;;;;;;;9.26;100.00;99053.66;4998244;28;20049;-70
2023/10/20 11:29:49;;;;;;;16.30;4.63;;;;;;;9.44;100.00;99038.69;5001889;28;20068;-70
2023/10/20 11:32:25;;;;;;;27.35;5.13;;;;;;;9.29;100.00;99049.09;4992769;28;20137;-70
2023/10/20 11:34:53;;;;;;;20.05;4.75;;;;;;;9.45;100.00;99038.56;5002192;28;20062;-70
2023/10/20 11:37:19;;;;;;;21.30;4.90;;;;;;;9.28;100.00;99055.25;4999050;28;20058;-70
2023/10/20 11:39:46;;;;;;;19.27;4.40;;;;;;;9.29;100.00;99020.34;5003324;28;20133;-70
2023/10/20 11:42:13;;;;;;;20.08;4.63;;;;;;;9.23;100.00;99025.13;4991604;28;20069;-70
2023/10/20 11:44:40;;;;;;;30.83;6.75;;;;;;;9.32;100.00;99014.97;4992764;28;20046;-70
2023/10/20 11:47:07;;;;;;;27.92;5.85;;;;;;;9.12;100.00;99020.53;5000906;28;20131;-70
2023/10/20 11:49:34;;;;;;;24.15;5.07;;;;;;;9.23;100.00;99017.28;5006222;28;20054;-70
2023/10/20 11:52:02;;;;;;;24.13;5.57;;;;;;;9.08;100.00;98998.13;4992666;28;20070;-70
2023/10/20 11:54:30;;;;;;;23.88;6.40;;;;;;;9.31;100.00;99023.75;4992657;28;20050;-70
2023/10/20 11:56:58;;;;;;;26.23;5.47;;;;;;;9.01;100.00;99025.53;5012296;28;20180;-70
2023/10/20 11:59:25;;;;;;;20.83;5.45;;;;;;;8.99;100.00;99028.22;5014330;28;20049;-70
2023/10/20 12:01:52;;;;;;;22.27;5.30;;;;;;;8.79;100.00;99018.13;5003042;28;20050;-70
2023/10/20 12:04:19;;;;;;;30.45;7.30;;;;;;;8.80;100.00;98993.69;5003495;28;20049;-70
2023/10/20 12:06:46;;;;;;;23.67;5.70;;;;;;;8.90;100.00;99000.88;5011954;28;20482;-70